sensor_id;sensor_type;location;lat;lon;timestamp;pressure;altitude;pressure_sealevel;temperature;humidity
19096;BME280;9680;52.520;13.332;2023-05-19T00:00:08;102476.03;;;10.59;57.48
19096;BME280;9680;52.520;13.332;2023-05-19T00:02:39;102481.25;;;10.57;57.86
19096;BME280;9680;52.520;13.332;2023-05-19T00:05:09;102476.06;;;10.54;57.54
19096;BME280;9680;52.520;13.332;2023-05-19T00:07:37;102476.97;;;10.52;57.51
19096;BME280;9680;52.520;13.332;2023-05-19T00:10:07;102484.78;;;10.50;57.74
19096;BME280;9680;52.520;13.332;2023-05-19T00:12:35;102481.34;;;10.49;57.75
19096;BME280;9680;52.520;13.332;2023-05-19T00:15:04;102481.34;;;10.48;57.61
19096;BME280;9680;52.520;13.332;2023-05-19T00:17:30;102479.63;;;10.47;57.58
19096;BME280;9680;52.520;13.332;2023-05-19T00:19:58;102475.28;;;10.46;57.55
19096;BME280;9680;52.520;13.332;2023-05-19T00:22:25;102481.41;;;10.43;57.46
19096;BME280;9680;52.520;13.332;2023-05-19T00:24:52;102484.88;;;10.39;57.67
19096;BME280;9680;52.520;13.332;2023-05-19T00:27:20;102483.16;;;10.38;57.66
19096;BME280;9680;52.520;13.332;2023-05-19T00:29:47;102478.84;;;10.34;57.77
19096;BME280;9680;52.520;13.332;2023-05-19T00:32:14;102478.00;;;10.30;57.79
19096;BME280;9680;52.520;13.332;2023-05-19T00:34:41;102478.03;;;10.26;58.05
19096;BME280;9680;52.520;13.332;2023-05-19T00:37:07;102476.38;;;10.20;58.06
19096;BME280;9680;52.520;13.332;2023-05-19T00:39:34;102479.00;;;10.15;58.10
19096;BME280;9680;52.520;13.332;2023-05-19T00:42:01;102481.59;;;10.17;58.07
19096;BME280;9680;52.520;13.332;2023-05-19T00:44:31;102480.72;;;10.18;58.09
19096;BME280;9680;52.520;13.332;2023-05-19T00:46:58;102474.69;;;10.11;58.19
19096;BME280;9680;52.520;13.332;2023-05-19T00:49:25;102485.13;;;10.08;58.36
19096;BME280;9680;52.520;13.332;2023-05-19T00:51:52;102476.50;;;10.04;58.54
19096;BME280;9680;52.520;13.332;2023-05-19T00:54:19;102473.88;;;10.06;58.55
19096;BME280;9680;52.520;13.332;2023-05-19T00:56:46;102475.66;;;10.02;58.64
19096;BME280;9680;52.520;13.332;2023-05-19T00:59:14;102477.41;;;10.00;58.43
19096;BME280;9680;52.520;13.332;2023-05-19T01:01:42;102474.78;;;10.00;58.52
19096;BME280;9680;52.520;13.332;2023-05-19T01:04:10;102479.19;;;9.95;58.71
19096;BME280;9680;52.520;13.332;2023-05-19T01:06:41;102476.56;;;9.92;58.55
19096;BME280;9680;52.520;13.332;2023-05-19T01:09:09;102479.19;;;9.94;58.63
19096;BME280;9680;52.520;13.332;2023-05-19T01:11:36;102480.06;;;9.89;58.80
19096;BME280;9680;52.520;13.332;2023-05-19T01:14:03;102470.53;;;9.88;58.77
19096;BME280;9680;52.520;13.332;2023-05-19T01:16:34;102471.38;;;9.89;58.87
19096;BME280;9680;52.520;13.332;2023-05-19T01:19:13;102470.53;;;9.88;58.86
19096;BME280;9680;52.520;13.332;2023-05-19T01:22:11;102474.00;;;9.86;58.74
19096;BME280;9680;52.520;13.332;2023-05-19T01:24:58;102462.75;;;9.85;58.76
19096;BME280;9680;52.520;13.332;2023-05-19T01:27:42;102467.09;;;9.82;58.45
19096;BME280;9680;52.520;13.332;2023-05-19T01:30:22;102471.47;;;9.81;58.61
19096;BME280;9680;52.520;13.332;2023-05-19T01:32:56;102468.03;;;9.76;58.63
19096;BME280;9680;52.520;13.332;2023-05-19T01:35:25;102481.00;;;9.79;58.58
19096;BME280;9680;52.520;13.332;2023-05-19T01:37:54;102480.13;;;9.80;58.77
19096;BME280;9680;52.520;13.332;2023-05-19T01:40:23;102482.75;;;9.75;59.15
19096;BME280;9680;52.520;13.332;2023-05-19T01:42:52;102472.41;;;9.68;59.42
19096;BME280;9680;52.520;13.332;2023-05-19T01:45:22;102475.03;;;9.66;59.18
19096;BME280;9680;52.520;13.332;2023-05-19T01:47:53;102475.91;;;9.60;59.33
19096;BME280;9680;52.520;13.332;2023-05-19T01:50:20;102470.72;;;9.59;59.56
19096;BME280;9680;52.520;13.332;2023-05-19T01:52:48;102475.09;;;9.52;59.60
19096;BME280;9680;52.520;13.332;2023-05-19T01:55:15;102470.75;;;9.51;59.61
19096;BME280;9680;52.520;13.332;2023-05-19T01:57:51;102470.78;;;9.50;59.71
19096;BME280;9680;52.520;13.332;2023-05-19T02:00:30;102485.53;;;9.46;59.89
19096;BME280;9680;52.520;13.332;2023-05-19T02:03:11;102483.81;;;9.42;60.01
19096;BME280;9680;52.520;13.332;2023-05-19T02:05:44;102482.16;;;9.33;60.04
19096;BME280;9680;52.520;13.332;2023-05-19T02:08:21;102480.44;;;9.29;60.30
19096;BME280;9680;52.520;13.332;2023-05-19T02:10:57;102480.44;;;9.27;60.39
19096;BME280;9680;52.520;13.332;2023-05-19T02:13:29;102478.72;;;9.28;60.39
19096;BME280;9680;52.520;13.332;2023-05-19T02:16:03;102476.09;;;9.25;60.58
19096;BME280;9680;52.520;13.332;2023-05-19T02:18:31;102479.59;;;9.22;60.54
19096;BME280;9680;52.520;13.332;2023-05-19T02:20:58;102473.53;;;9.23;60.50
19096;BME280;9680;52.520;13.332;2023-05-19T02:23:25;102477.84;;;9.27;60.05
19096;BME280;9680;52.520;13.332;2023-05-19T02:25:52;102479.56;;;9.28;60.25
19096;BME280;9680;52.520;13.332;2023-05-19T02:28:19;102472.63;;;9.30;60.22
19096;BME280;9680;52.520;13.332;2023-05-19T02:30:45;102476.06;;;9.32;60.04
19096;BME280;9680;52.520;13.332;2023-05-19T02:33:13;102470.03;;;9.27;60.20
19096;BME280;9680;52.520;13.332;2023-05-19T02:35:42;102473.50;;;9.29;60.06
19096;BME280;9680;52.520;13.332;2023-05-19T02:38:08;102480.44;;;9.29;59.99
19096;BME280;9680;52.520;13.332;2023-05-19T02:40:35;102473.50;;;9.26;60.08
19096;BME280;9680;52.520;13.332;2023-05-19T02:43:02;102470.03;;;9.27;60.35
19096;BME280;9680;52.520;13.332;2023-05-19T02:45:29;102474.34;;;9.28;60.33
19096;BME280;9680;52.520;13.332;2023-05-19T02:47:56;102474.34;;;9.28;60.50
19096;BME280;9680;52.520;13.332;2023-05-19T02:50:25;102471.75;;;9.28;60.57
19096;BME280;9680;52.520;13.332;2023-05-19T02:52:52;102467.38;;;9.37;60.47
19096;BME280;9680;52.520;13.332;2023-05-19T02:55:19;102471.69;;;9.44;60.27
19096;BME280;9680;52.520;13.332;2023-05-19T02:57:46;102472.50;;;9.52;60.10
19096;BME280;9680;52.520;13.332;2023-05-19T03:00:13;102473.34;;;9.54;59.91
19096;BME280;9680;52.520;13.332;2023-05-19T03:02:40;102469.88;;;9.61;59.99
19096;BME280;9680;52.520;13.332;2023-05-19T03:05:09;102466.38;;;9.66;59.64
19096;BME280;9680;52.520;13.332;2023-05-19T03:07:37;102462.91;;;9.64;59.47
19096;BME280;9680;52.520;13.332;2023-05-19T03:10:05;102468.94;;;9.69;59.58
19096;BME280;9680;52.520;13.332;2023-05-19T03:12:32;102462.88;;;9.70;59.45
19096;BME280;9680;52.520;13.332;2023-05-19T03:14:59;102461.16;;;9.64;59.48
19096;BME280;9680;52.520;13.332;2023-05-19T03:17:26;102457.72;;;9.59;59.70
19096;BME280;9680;52.520;13.332;2023-05-19T03:19:58;102461.16;;;9.64;59.58
19096;BME280;9680;52.520;13.332;2023-05-19T03:22:25;102456.81;;;9.68;59.69
19096;BME280;9680;52.520;13.332;2023-05-19T03:24:53;102458.53;;;9.67;59.65
19096;BME280;9680;52.520;13.332;2023-05-19T03:27:20;102463.75;;;9.69;59.60
19096;BME280;9680;52.520;13.332;2023-05-19T03:29:48;102461.19;;;9.63;59.89
19096;BME280;9680;52.520;13.332;2023-05-19T03:32:15;102466.38;;;9.66;59.85
19096;BME280;9680;52.520;13.332;2023-05-19T03:34:42;102468.09;;;9.65;59.70
19096;BME280;9680;52.520;13.332;2023-05-19T03:37:08;102462.06;;;9.61;59.92
19096;BME280;9680;52.520;13.332;2023-05-19T03:39:38;102462.91;;;9.57;60.07
19096;BME280;9680;52.520;13.332;2023-05-19T03:42:06;102455.09;;;9.60;59.98
19096;BME280;9680;52.520;13.332;2023-05-19T03:44:34;102458.59;;;9.63;59.91
19096;BME280;9680;52.520;13.332;2023-05-19T03:47:01;102456.84;;;9.58;60.08
19096;BME280;9680;52.520;13.332;2023-05-19T03:49:37;102449.06;;;9.55;60.19
19096;BME280;9680;52.520;13.332;2023-05-19T03:52:22;102460.31;;;9.62;60.21
19096;BME280;9680;52.520;13.332;2023-05-19T03:54:58;102457.66;;;9.70;59.97
19096;BME280;9680;52.520;13.332;2023-05-19T03:57:26;102455.91;;;9.72;60.17
19096;BME280;9680;52.520;13.332;2023-05-19T03:59:53;102461.06;;;9.78;60.05
19096;BME280;9680;52.520;13.332;2023-05-19T04:02:20;102451.53;;;9.77;59.97
19096;BME280;9680;52.520;13.332;2023-05-19T04:04:47;102455.88;;;9.73;60.15
19096;BME280;9680;52.520;13.332;2023-05-19T04:07:14;102456.75;;;9.74;60.25
19096;BME280;9680;52.520;13.332;2023-05-19T04:09:41;102461.91;;;9.79;60.39
19096;BME280;9680;52.520;13.332;2023-05-19T04:12:09;102463.59;;;9.86;60.11
19096;BME280;9680;52.520;13.332;2023-05-19T04:14:37;102457.47;;;9.93;59.93
19096;BME280;9680;52.520;13.332;2023-05-19T04:17:04;102462.59;;;10.04;59.75
19096;BME280;9680;52.520;13.332;2023-05-19T04:19:32;102459.88;;;10.18;59.69
19096;BME280;9680;52.520;13.332;2023-05-19T04:22:00;102453.72;;;10.28;59.09
19096;BME280;9680;52.520;13.332;2023-05-19T04:24:27;102464.91;;;10.37;59.20
19096;BME280;9680;52.520;13.332;2023-05-19T04:26:54;102461.41;;;10.44;58.84
19096;BME280;9680;52.520;13.332;2023-05-19T04:29:21;102460.50;;;10.48;58.55
19096;BME280;9680;52.520;13.332;2023-05-19T04:31:50;102466.53;;;10.55;58.78
19096;BME280;9680;52.520;13.332;2023-05-19T04:34:17;102468.22;;;10.59;58.35
19096;BME280;9680;52.520;13.332;2023-05-19T04:36:44;102462.09;;;10.63;58.29
19096;BME280;9680;52.520;13.332;2023-05-19T04:39:12;102467.31;;;10.65;58.40
19096;BME280;9680;52.520;13.332;2023-05-19T04:41:43;102467.19;;;10.72;58.49
19096;BME280;9680;52.520;13.332;2023-05-19T04:44:10;102467.13;;;10.80;58.12
19096;BME280;9680;52.520;13.332;2023-05-19T04:46:38;102467.09;;;10.83;57.87
19096;BME280;9680;52.520;13.332;2023-05-19T04:49:08;102468.81;;;10.83;58.08
19096;BME280;9680;52.520;13.332;2023-05-19T04:51:37;102469.63;;;10.89;57.81
19096;BME280;9680;52.520;13.332;2023-05-19T04:54:06;102472.13;;;11.00;58.03
19096;BME280;9680;52.520;13.332;2023-05-19T04:56:32;102466.81;;;11.06;57.85
19096;BME280;9680;52.520;13.332;2023-05-19T04:59:00;102465.78;;;11.20;57.76
19096;BME280;9680;52.520;13.332;2023-05-19T05:01:27;102466.44;;;11.34;57.67
19096;BME280;9680;52.520;13.332;2023-05-19T05:03:55;102473.25;;;11.45;57.22
19096;BME280;9680;52.520;13.332;2023-05-19T05:06:25;102466.25;;;11.48;57.04
19096;BME280;9680;52.520;13.332;2023-05-19T05:08:53;102458.44;;;11.48;56.91
19096;BME280;9680;52.520;13.332;2023-05-19T05:11:20;102462.78;;;11.48;56.96
19096;BME280;9680;52.520;13.332;2023-05-19T05:13:47;102461.06;;;11.47;57.16
19096;BME280;9680;52.520;13.332;2023-05-19T05:16:15;102461.00;;;11.50;57.27
19096;BME280;9680;52.520;13.332;2023-05-19T05:18:42;102466.06;;;11.62;57.06
19096;BME280;9680;52.520;13.332;2023-05-19T05:21:10;102463.38;;;11.67;56.76
19096;BME280;9680;52.520;13.332;2023-05-19T05:23:39;102467.59;;;11.76;56.76
19096;BME280;9680;52.520;13.332;2023-05-19T05:26:09;102460.50;;;11.84;56.73
19096;BME280;9680;52.520;13.332;2023-05-19T05:28:43;102465.56;;;11.95;56.76
19096;BME280;9680;52.520;13.332;2023-05-19T05:31:10;102462.88;;;12.00;56.46
19096;BME280;9680;52.520;13.332;2023-05-19T05:33:39;102465.41;;;12.06;56.39
19096;BME280;9680;52.520;13.332;2023-05-19T05:36:07;102469.63;;;12.13;56.18
19096;BME280;9680;52.520;13.332;2023-05-19T05:38:35;102470.47;;;12.15;56.21
19096;BME280;9680;52.520;13.332;2023-05-19T05:41:03;102470.53;;;12.12;56.43
19096;BME280;9680;52.520;13.332;2023-05-19T05:43:33;102464.41;;;12.13;56.06
19096;BME280;9680;52.520;13.332;2023-05-19T05:46:02;102466.06;;;12.19;56.20
19096;BME280;9680;52.520;13.332;2023-05-19T05:48:30;102468.44;;;12.33;56.03
19096;BME280;9680;52.520;13.332;2023-05-19T05:50:58;102474.19;;;12.52;55.78
19096;BME280;9680;52.520;13.332;2023-05-19T05:53:29;102471.38;;;12.64;54.99
19096;BME280;9680;52.520;13.332;2023-05-19T05:55:59;102465.06;;;12.75;54.88
19096;BME280;9680;52.520;13.332;2023-05-19T05:58:37;102462.25;;;12.84;54.59
19096;BME280;9680;52.520;13.332;2023-05-19T06:01:05;102464.78;;;12.89;54.61
19096;BME280;9680;52.520;13.332;2023-05-19T06:03:36;102455.88;;;12.99;54.59
19096;BME280;9680;52.520;13.332;2023-05-19T06:06:05;102453.91;;;13.09;54.43
19096;BME280;9680;52.520;13.332;2023-05-19T06:08:33;102456.25;;;13.21;54.04
19096;BME280;9680;52.520;13.332;2023-05-19T06:11:00;102457.81;;;13.30;53.77
19096;BME280;9680;52.520;13.332;2023-05-19T06:13:33;102461.94;;;13.40;53.80
19096;BME280;9680;52.520;13.332;2023-05-19T06:16:02;102465.47;;;13.39;53.72
19096;BME280;9680;52.520;13.332;2023-05-19T06:18:34;102467.94;;;13.47;53.46
19096;BME280;9680;52.520;13.332;2023-05-19T06:21:10;102461.53;;;13.61;53.81
19096;BME280;9680;52.520;13.332;2023-05-19T06:24:27;102459.25;;;13.83;52.94
19096;BME280;9680;52.520;13.332;2023-05-19T06:26:42;102459.63;;;14.04;52.48
19096;BME280;9680;52.520;13.332;2023-05-19T06:29:18;102457.50;;;14.18;52.34
19096;BME280;9680;52.520;13.332;2023-05-19T06:31:53;102463.53;;;14.22;52.26
19096;BME280;9680;52.520;13.332;2023-05-19T06:34:38;102458.09;;;14.30;52.07
19096;BME280;9680;52.520;13.332;2023-05-19T06:37:05;102465.91;;;14.31;51.93
19096;BME280;9680;52.520;13.332;2023-05-19T06:39:32;102463.19;;;14.36;51.53
19096;BME280;9680;52.520;13.332;2023-05-19T06:42:09;102462.22;;;14.38;51.78
19096;BME280;9680;52.520;13.332;2023-05-19T06:45:16;102452.63;;;14.39;51.46
19096;BME280;9680;52.520;13.332;2023-05-19T06:47:49;102460.72;;;14.30;51.44
19096;BME280;9680;52.520;13.332;2023-05-19T06:50:16;102452.78;;;14.33;51.62
19096;BME280;9680;52.520;13.332;2023-05-19T06:52:45;102454.41;;;14.37;51.54
19096;BME280;9680;52.520;13.332;2023-05-19T06:55:12;102459.59;;;14.38;51.63
19096;BME280;9680;52.520;13.332;2023-05-19T06:57:39;102460.41;;;14.42;51.17
19096;BME280;9680;52.520;13.332;2023-05-19T07:00:07;102455.16;;;14.42;51.26
19096;BME280;9680;52.520;13.332;2023-05-19T07:02:37;102455.00;;;14.47;51.20
19096;BME280;9680;52.520;13.332;2023-05-19T07:05:06;102454.00;;;14.52;51.34
19096;BME280;9680;52.520;13.332;2023-05-19T07:07:33;102449.38;;;14.62;51.05
19096;BME280;9680;52.520;13.332;2023-05-19T07:10:02;102450.03;;;14.70;51.44
19096;BME280;9680;52.520;13.332;2023-05-19T07:12:30;102455.78;;;14.83;51.19
19096;BME280;9680;52.520;13.332;2023-05-19T07:14:58;102457.31;;;14.91;50.99
19096;BME280;9680;52.520;13.332;2023-05-19T07:17:26;102447.34;;;15.04;50.87
19096;BME280;9680;52.520;13.332;2023-05-19T07:19:53;102451.38;;;15.16;49.94
19096;BME280;9680;52.520;13.332;2023-05-19T07:22:22;102444.88;;;14.99;50.10
19096;BME280;9680;52.520;13.332;2023-05-19T07:24:49;102459.69;;;15.00;50.26
19096;BME280;9680;52.520;13.332;2023-05-19T07:27:16;102452.00;;;14.94;50.16
19096;BME280;9680;52.520;13.332;2023-05-19T07:29:43;102450.75;;;15.07;50.51
19096;BME280;9680;52.520;13.332;2023-05-19T07:32:10;102448.03;;;15.39;49.95
19096;BME280;9680;52.520;13.332;2023-05-19T07:34:37;102452.13;;;15.48;49.87
19096;BME280;9680;52.520;13.332;2023-05-19T07:37:04;102449.75;;;15.68;49.15
19096;BME280;9680;52.520;13.332;2023-05-19T07:39:32;102445.63;;;15.88;49.03
19096;BME280;9680;52.520;13.332;2023-05-19T07:41:59;102438.81;;;16.08;48.72
19096;BME280;9680;52.520;13.332;2023-05-19T07:44:26;102445.59;;;16.15;48.46
19096;BME280;9680;52.520;13.332;2023-05-19T07:46:55;102434.00;;;16.21;48.27
19096;BME280;9680;52.520;13.332;2023-05-19T07:49:23;102441.69;;;16.27;48.18
19096;BME280;9680;52.520;13.332;2023-05-19T07:51:50;102438.09;;;16.29;48.15
19096;BME280;9680;52.520;13.332;2023-05-19T07:54:17;102436.84;;;16.40;48.02
19096;BME280;9680;52.520;13.332;2023-05-19T07:56:48;102433.44;;;16.38;47.90
19096;BME280;9680;52.520;13.332;2023-05-19T07:59:18;102441.25;;;16.39;47.73
19096;BME280;9680;52.520;13.332;2023-05-19T08:01:45;102434.81;;;16.48;46.96
19096;BME280;9680;52.520;13.332;2023-05-19T08:04:13;102430.09;;;16.58;47.01
19096;BME280;9680;52.520;13.332;2023-05-19T08:06:44;102428.63;;;16.73;46.87
19096;BME280;9680;52.520;13.332;2023-05-19T08:09:11;102427.13;;;16.89;46.48
19096;BME280;9680;52.520;13.332;2023-05-19T08:11:39;102427.84;;;17.18;46.52
19096;BME280;9680;52.520;13.332;2023-05-19T08:14:07;102429.81;;;17.58;45.95
19096;BME280;9680;52.520;13.332;2023-05-19T08:16:35;102430.88;;;17.95;45.20
19096;BME280;9680;52.520;13.332;2023-05-19T08:19:02;102427.97;;;18.03;43.78
19096;BME280;9680;52.520;13.332;2023-05-19T08:21:31;102429.34;;;18.32;43.68
19096;BME280;9680;52.520;13.332;2023-05-19T08:23:59;102425.75;;;18.54;43.75
19096;BME280;9680;52.520;13.332;2023-05-19T08:26:27;102431.06;;;18.33;42.98
19096;BME280;9680;52.520;13.332;2023-05-19T08:28:54;102422.13;;;17.95;43.84
19096;BME280;9680;52.520;13.332;2023-05-19T08:31:23;102423.13;;;17.92;43.85
19096;BME280;9680;52.520;13.332;2023-05-19T08:33:52;102434.75;;;17.86;44.21
19096;BME280;9680;52.520;13.332;2023-05-19T08:36:18;102428.66;;;17.86;44.10
19096;BME280;9680;52.520;13.332;2023-05-19T08:38:46;102429.97;;;17.96;44.27
19096;BME280;9680;52.520;13.332;2023-05-19T08:41:13;102432.50;;;18.20;43.12
19096;BME280;9680;52.520;13.332;2023-05-19T08:43:42;102429.81;;;18.01;43.04
19096;BME280;9680;52.520;13.332;2023-05-19T08:46:12;102420.88;;;17.83;43.29
19096;BME280;9680;52.520;13.332;2023-05-19T08:48:43;102425.91;;;17.67;43.46
19096;BME280;9680;52.520;13.332;2023-05-19T08:51:19;102418.63;;;17.73;43.61
19096;BME280;9680;52.520;13.332;2023-05-19T08:53:51;102408.66;;;17.80;42.57
19096;BME280;9680;52.520;13.332;2023-05-19T08:56:21;102420.44;;;17.94;42.22
19096;BME280;9680;52.520;13.332;2023-05-19T08:58:49;102416.38;;;18.07;42.03
19096;BME280;9680;52.520;13.332;2023-05-19T09:01:18;102411.22;;;18.25;41.30
19096;BME280;9680;52.520;13.332;2023-05-19T09:03:47;102411.03;;;18.48;41.11
19096;BME280;9680;52.520;13.332;2023-05-19T09:06:14;102403.72;;;18.74;40.65
19096;BME280;9680;52.520;13.332;2023-05-19T09:08:42;102396.63;;;19.32;39.85
19096;BME280;9680;52.520;13.332;2023-05-19T09:11:10;102397.81;;;19.79;39.50
19096;BME280;9680;52.520;13.332;2023-05-19T09:13:37;102394.38;;;20.13;39.00
19096;BME280;9680;52.520;13.332;2023-05-19T09:16:05;102388.66;;;20.38;38.43
19096;BME280;9680;52.520;13.332;2023-05-19T09:18:32;102388.66;;;20.38;37.92
19096;BME280;9680;52.520;13.332;2023-05-19T09:21:00;102388.63;;;20.22;37.44
19096;BME280;9680;52.520;13.332;2023-05-19T09:23:29;102391.13;;;20.07;37.23
19096;BME280;9680;52.520;13.332;2023-05-19T09:26:00;102384.13;;;19.89;36.21
19096;BME280;9680;52.520;13.332;2023-05-19T09:28:29;102378.69;;;19.57;36.62
19096;BME280;9680;52.520;13.332;2023-05-19T09:31:00;102371.38;;;19.44;36.81
19096;BME280;9680;52.520;13.332;2023-05-19T09:33:28;102372.59;;;19.55;37.44
19096;BME280;9680;52.520;13.332;2023-05-19T09:35:56;102367.25;;;19.39;36.63
19096;BME280;9680;52.520;13.332;2023-05-19T09:38:25;102360.00;;;19.25;37.02
19096;BME280;9680;52.520;13.332;2023-05-19T09:40:52;102367.25;;;19.39;37.37
19096;BME280;9680;52.520;13.332;2023-05-19T09:43:20;102362.44;;;19.64;37.19
19096;BME280;9680;52.520;13.332;2023-05-19T09:45:47;102372.94;;;19.84;35.80
19096;BME280;9680;52.520;13.332;2023-05-19T09:48:14;102372.31;;;19.61;36.25
19096;BME280;9680;52.520;13.332;2023-05-19T09:50:42;102361.97;;;19.39;36.14
19096;BME280;9680;52.520;13.332;2023-05-19T09:53:12;102359.34;;;19.56;36.70
19096;BME280;9680;52.520;13.332;2023-05-19T09:55:42;102355.03;;;19.89;35.54
19096;BME280;9680;52.520;13.332;2023-05-19T09:58:15;102352.75;;;20.16;35.75
19096;BME280;9680;52.520;13.332;2023-05-19T10:00:42;102349.41;;;20.62;34.93
19096;BME280;9680;52.520;13.332;2023-05-19T10:03:11;102341.72;;;20.74;34.05
19096;BME280;9680;52.520;13.332;2023-05-19T10:05:38;102347.09;;;20.72;34.58
19096;BME280;9680;52.520;13.332;2023-05-19T10:08:06;102337.13;;;20.77;34.75
19096;BME280;9680;52.520;13.332;2023-05-19T10:10:38;102326.94;;;21.02;34.23
19096;BME280;9680;52.520;13.332;2023-05-19T10:13:07;102333.28;;;20.67;33.51
19096;BME280;9680;52.520;13.332;2023-05-19T10:15:35;102339.91;;;20.26;34.41
19096;BME280;9680;52.520;13.332;2023-05-19T10:18:03;102344.66;;;20.19;35.26
19096;BME280;9680;52.520;13.332;2023-05-19T10:20:33;102339.13;;;20.40;35.10
19096;BME280;9680;52.520;13.332;2023-05-19T10:23:01;102344.81;;;20.66;34.70
19096;BME280;9680;52.520;13.332;2023-05-19T10:25:32;102349.66;;;20.42;34.46
19096;BME280;9680;52.520;13.332;2023-05-19T10:28:03;102352.72;;;20.00;35.41
19096;BME280;9680;52.520;13.332;2023-05-19T10:30:36;102335.31;;;19.96;35.31
19096;BME280;9680;52.520;13.332;2023-05-19T10:33:06;102341.81;;;19.89;35.67
19096;BME280;9680;52.520;13.332;2023-05-19T10:35:58;102343.63;;;20.06;35.21
19096;BME280;9680;52.520;13.332;2023-05-19T10:38:38;102325.75;;;20.27;35.22
19096;BME280;9680;52.520;13.332;2023-05-19T10:41:11;102326.44;;;20.63;34.14
19096;BME280;9680;52.520;13.332;2023-05-19T10:43:53;102322.34;;;19.91;34.67
19096;BME280;9680;52.520;13.332;2023-05-19T10:46:26;102330.09;;;19.95;34.47
19096;BME280;9680;52.520;13.332;2023-05-19T10:48:54;102337.06;;;20.13;34.58
19096;BME280;9680;52.520;13.332;2023-05-19T10:51:29;102335.00;;;20.18;34.18
19096;BME280;9680;52.520;13.332;2023-05-19T10:53:56;102329.78;;;20.17;34.32
19096;BME280;9680;52.520;13.332;2023-05-19T10:56:27;102319.34;;;20.31;34.78
19096;BME280;9680;52.520;13.332;2023-05-19T10:58:58;102323.34;;;20.39;34.31
19096;BME280;9680;52.520;13.332;2023-05-19T11:01:31;102317.19;;;20.22;34.34
19096;BME280;9680;52.520;13.332;2023-05-19T11:04:04;102314.84;;;20.16;34.36
19096;BME280;9680;52.520;13.332;2023-05-19T11:06:32;102317.56;;;19.98;34.72
19096;BME280;9680;52.520;13.332;2023-05-19T11:09:12;102313.88;;;19.83;34.66
19096;BME280;9680;52.520;13.332;2023-05-19T11:11:44;102310.06;;;19.90;35.19
19096;BME280;9680;52.520;13.332;2023-05-19T11:14:11;102317.19;;;19.88;34.87
19096;BME280;9680;52.520;13.332;2023-05-19T11:16:40;102315.00;;;19.79;35.47
19096;BME280;9680;52.520;13.332;2023-05-19T11:19:07;102319.25;;;19.99;35.29
19096;BME280;9680;52.520;13.332;2023-05-19T11:21:41;102317.84;;;20.10;34.81
19096;BME280;9680;52.520;13.332;2023-05-19T11:24:08;102305.94;;;20.34;34.43
19096;BME280;9680;52.520;13.332;2023-05-19T11:26:44;102315.06;;;20.45;34.32
19096;BME280;9680;52.520;13.332;2023-05-19T11:29:11;102316.00;;;20.28;34.05
19096;BME280;9680;52.520;13.332;2023-05-19T11:31:42;102301.78;;;20.13;34.67
19096;BME280;9680;52.520;13.332;2023-05-19T11:34:09;102300.19;;;20.10;34.87
19096;BME280;9680;52.520;13.332;2023-05-19T11:36:38;102298.06;;;20.33;34.61
19096;BME280;9680;52.520;13.332;2023-05-19T11:39:07;102300.56;;;20.52;34.45
19096;BME280;9680;52.520;13.332;2023-05-19T11:41:37;102298.84;;;20.35;33.93
19096;BME280;9680;52.520;13.332;2023-05-19T11:44:08;102300.59;;;20.02;34.82
19096;BME280;9680;52.520;13.332;2023-05-19T11:46:35;102298.16;;;20.15;35.21
19096;BME280;9680;52.520;13.332;2023-05-19T11:49:04;102294.94;;;20.26;34.67
19096;BME280;9680;52.520;13.332;2023-05-19T11:51:31;102300.63;;;20.50;34.44
19096;BME280;9680;52.520;13.332;2023-05-19T11:53:58;102301.84;;;20.61;34.23
19096;BME280;9680;52.520;13.332;2023-05-19T11:56:26;102300.88;;;20.78;34.14
19096;BME280;9680;52.520;13.332;2023-05-19T11:58:52;102298.00;;;20.83;33.66
19096;BME280;9680;52.520;13.332;2023-05-19T12:01:22;102297.75;;;20.71;33.38
19096;BME280;9680;52.520;13.332;2023-05-19T12:03:50;102302.16;;;20.71;33.25
19096;BME280;9680;52.520;13.332;2023-05-19T12:06:19;102297.06;;;20.84;33.20
19096;BME280;9680;52.520;13.332;2023-05-19T12:08:46;102295.06;;;21.03;33.56
19096;BME280;9680;52.520;13.332;2023-05-19T12:11:13;102303.00;;;21.34;32.13
19096;BME280;9680;52.520;13.332;2023-05-19T12:13:40;102293.41;;;21.17;32.09
19096;BME280;9680;52.520;13.332;2023-05-19T12:16:07;102286.22;;;21.19;31.86
19096;BME280;9680;52.520;13.332;2023-05-19T12:18:36;102283.88;;;20.98;31.50
19096;BME280;9680;52.520;13.332;2023-05-19T12:21:03;102292.34;;;21.05;32.37
19096;BME280;9680;52.520;13.332;2023-05-19T12:23:32;102288.25;;;21.30;32.36
19096;BME280;9680;52.520;13.332;2023-05-19T12:25:59;102295.44;;;21.42;31.72
19096;BME280;9680;52.520;13.332;2023-05-19T12:28:28;102283.25;;;21.39;31.52
19096;BME280;9680;52.520;13.332;2023-05-19T12:30:55;102279.66;;;21.41;31.83
19096;BME280;9680;52.520;13.332;2023-05-19T12:33:23;102283.16;;;21.41;31.18
19096;BME280;9680;52.520;13.332;2023-05-19T12:35:50;102275.34;;;21.23;30.93
19096;BME280;9680;52.520;13.332;2023-05-19T12:38:18;102274.97;;;21.15;31.74
19096;BME280;9680;52.520;13.332;2023-05-19T12:40:46;102274.38;;;21.10;31.88
19096;BME280;9680;52.520;13.332;2023-05-19T12:43:19;102278.28;;;20.88;32.05
19096;BME280;9680;52.520;13.332;2023-05-19T12:45:46;102270.91;;;20.77;32.59
19096;BME280;9680;52.520;13.332;2023-05-19T12:48:13;102266.22;;;20.66;32.38
19096;BME280;9680;52.520;13.332;2023-05-19T12:50:41;102272.72;;;20.45;32.98
19096;BME280;9680;52.520;13.332;2023-05-19T12:53:10;102263.34;;;20.39;33.38
19096;BME280;9680;52.520;13.332;2023-05-19T12:55:38;102263.50;;;20.52;32.89
19096;BME280;9680;52.520;13.332;2023-05-19T12:58:14;102262.63;;;20.51;33.38
19096;BME280;9680;52.520;13.332;2023-05-19T13:00:42;102259.41;;;20.62;33.27
19096;BME280;9680;52.520;13.332;2023-05-19T13:03:14;102249.81;;;20.76;33.69